createdAt,value
2022-09-22T00:01:33.375Z,96459.50
2022-09-22T00:04:06.106Z,96457.28
2022-09-22T00:06:37.715Z,96447.69
2022-09-22T00:09:10.044Z,96456.91
2022-09-22T00:11:41.019Z,96411.06
2022-09-22T00:14:11.754Z,96451.44
2022-09-22T00:16:42.687Z,96442.34
2022-09-22T00:19:16.795Z,96447.69
2022-09-22T00:21:45.212Z,96446.09
2022-09-22T00:24:15.659Z,96435.38
2022-09-22T00:26:44.237Z,96446.91
2022-09-22T00:29:13.827Z,96423.69
2022-09-22T00:31:43.427Z,96448.16
2022-09-22T00:34:16.751Z,96401.25
2022-09-22T00:36:45.499Z,96425.38
2022-09-22T00:39:16.039Z,96422.13
2022-09-22T00:41:46.563Z,96447.00
2022-09-22T00:44:34.218Z,96443.50
2022-09-22T00:47:07.790Z,96417.97
2022-09-22T00:49:42.696Z,96439.41
2022-09-22T00:52:12.643Z,96440.91
2022-09-22T00:54:42.622Z,96441.97
2022-09-22T00:57:15.627Z,96439.75
2022-09-22T00:59:45.903Z,96434.84
2022-09-22T01:02:14.610Z,96442.28
2022-09-22T01:04:43.704Z,96436.91
2022-09-22T01:07:14.120Z,96442.72
2022-09-22T01:09:43.939Z,96435.75
2022-09-22T01:12:13.172Z,96431.22
2022-09-22T01:14:54.943Z,96437.38
2022-09-22T01:17:30.991Z,96429.59
2022-09-22T01:20:35.040Z,96426.66
2022-09-22T01:23:39.914Z,96407.19
2022-09-22T01:26:31.512Z,96406.72
2022-09-22T01:29:26.439Z,96421.50
2022-09-22T01:32:04.169Z,96421.50
2022-09-22T01:34:38.000Z,96370.88
2022-09-22T01:37:14.373Z,96419.41
2022-09-22T01:39:46.903Z,96421.06
2022-09-22T01:42:19.721Z,96422.34
2022-09-22T01:44:53.219Z,96411.84
2022-09-22T01:47:28.474Z,96417.44
2022-09-22T01:50:02.006Z,96377.66
2022-09-22T01:52:34.736Z,96385.56
2022-09-22T01:55:07.683Z,96406.81
2022-09-22T01:57:42.925Z,96402.72
2022-09-22T02:00:12.792Z,96408.09
2022-09-22T02:02:48.044Z,96399.81
2022-09-22T02:05:22.407Z,96278.81
2022-09-22T02:07:55.291Z,96392.84
2022-09-22T02:10:31.859Z,96390.75
2022-09-22T02:13:01.376Z,96396.31
2022-09-22T02:15:47.796Z,96391.41
2022-09-22T02:18:23.219Z,96391.28
2022-09-22T02:20:52.039Z,96391.66
2022-09-22T02:23:20.737Z,96391.53
2022-09-22T02:25:50.823Z,96380.22
2022-09-22T02:28:23.874Z,96363.53
2022-09-22T02:31:18.597Z,96373.56
2022-09-22T02:33:46.244Z,96345.69
2022-09-22T02:36:32.314Z,96387.22
2022-09-22T02:39:07.635Z,96345.97
2022-09-22T02:41:47.448Z,96383.97
2022-09-22T02:44:21.486Z,96390.34
2022-09-22T02:46:57.326Z,96389.75
2022-09-22T02:49:29.407Z,96379.88
2022-09-22T02:51:58.016Z,96377.41
2022-09-22T02:54:26.492Z,96382.19
2022-09-22T02:56:55.247Z,96377.28
2022-09-22T02:59:23.657Z,96343.44
2022-09-22T03:01:52.031Z,96361.84
2022-09-22T03:04:20.467Z,96368.16
2022-09-22T03:06:50.663Z,96371.06
2022-09-22T03:09:19.062Z,96373.28
2022-09-22T03:11:48.444Z,96372.00
2022-09-22T03:14:16.815Z,96371.88
2022-09-22T03:16:45.475Z,96356.44
2022-09-22T03:19:14.199Z,96370.03
2022-09-22T03:21:42.871Z,96367.19
2022-09-22T03:24:12.675Z,96369.88
2022-09-22T03:26:41.106Z,96325.50
2022-09-22T03:29:09.454Z,96368.84
2022-09-22T03:31:37.852Z,96370.47
2022-09-22T03:34:06.845Z,96363.25
2022-09-22T03:36:35.440Z,96325.94
2022-09-22T03:39:03.839Z,96368.00
2022-09-22T03:41:33.933Z,96362.91
2022-09-22T03:44:02.462Z,96358.16
2022-09-22T03:46:31.209Z,96361.28
2022-09-22T03:48:59.587Z,96366.03
2022-09-22T03:51:28.060Z,96364.97
2022-09-22T03:53:57.087Z,96363.34
2022-09-22T03:56:25.545Z,96352.06
2022-09-22T03:58:55.415Z,96355.34
2022-09-22T04:01:23.936Z,96365.22
2022-09-22T04:03:53.125Z,96350.19
2022-09-22T04:06:21.672Z,96351.25
2022-09-22T04:08:50.290Z,96351.25
2022-09-22T04:11:18.634Z,96307.50
2022-09-22T04:13:47.147Z,96356.38
2022-09-22T04:16:17.277Z,96359.28
2022-09-22T04:18:45.732Z,96340.03
2022-09-22T04:21:14.347Z,96357.63
2022-09-22T04:23:42.843Z,96356.81
2022-09-22T04:26:11.254Z,96354.16
2022-09-22T04:28:39.652Z,96256.78
2022-09-22T04:31:08.284Z,96357.25
2022-09-22T04:33:38.484Z,96345.03
2022-09-22T04:36:07.695Z,96349.47
2022-09-22T04:38:36.171Z,96342.94
2022-09-22T04:41:04.623Z,96343.75
2022-09-22T04:43:33.040Z,96347.47
2022-09-22T04:46:01.936Z,96273.25
2022-09-22T04:48:30.327Z,96355.72
2022-09-22T04:51:00.125Z,96340.50
2022-09-22T04:53:28.920Z,96350.81
2022-09-22T04:55:57.632Z,96363.56
2022-09-22T04:58:26.891Z,96350.91
2022-09-22T05:00:56.026Z,96347.19
2022-09-22T05:03:24.564Z,96351.91
2022-09-22T05:05:52.989Z,96333.75
2022-09-22T05:08:23.163Z,96348.44
2022-09-22T05:10:51.549Z,96285.13
2022-09-22T05:13:20.312Z,96350.06
2022-09-22T05:15:48.661Z,96344.28
2022-09-22T05:18:17.084Z,96356.00
2022-09-22T05:20:46.015Z,96358.47
2022-09-22T05:23:14.539Z,96350.22
2022-09-22T05:25:44.402Z,96350.00
2022-09-22T05:28:13.976Z,96350.81
2022-09-22T05:30:42.482Z,96353.25
2022-09-22T05:33:10.928Z,96321.81
2022-09-22T05:35:39.284Z,96349.94
2022-09-22T05:38:07.614Z,96317.72
2022-09-22T05:40:35.999Z,96357.50
2022-09-22T05:43:06.042Z,96351.09
2022-09-22T05:45:34.427Z,96355.16
2022-09-22T05:48:03.403Z,96356.38
2022-09-22T05:50:31.897Z,96355.09
2022-09-22T05:53:08.041Z,96359.19
2022-09-22T05:55:37.085Z,96334.56
2022-09-22T05:58:09.311Z,96365.72
2022-09-22T06:00:38.266Z,96367.34
2022-09-22T06:03:07.158Z,96364.00
2022-09-22T06:05:38.150Z,96359.47
2022-09-22T06:08:08.252Z,96373.41
2022-09-22T06:10:39.099Z,96133.16
2022-09-22T06:13:11.156Z,96332.19
2022-09-22T06:15:40.225Z,96365.06
2022-09-22T06:18:14.918Z,96377.53
2022-09-22T06:20:44.728Z,96378.50
2022-09-22T06:23:15.669Z,96363.03
2022-09-22T06:25:44.408Z,96382.88
2022-09-22T06:28:15.839Z,96349.78
2022-09-22T06:30:44.559Z,96380.69
2022-09-22T06:33:13.254Z,96368.09
2022-09-22T06:35:43.138Z,96380.97
2022-09-22T06:38:15.800Z,96358.25
2022-09-22T06:40:45.418Z,96381.56
2022-09-22T06:43:23.085Z,96372.63
2022-09-22T06:45:52.477Z,96373.56
2022-09-22T06:48:24.073Z,96355.75
2022-09-22T06:50:54.992Z,96369.63
2022-09-22T06:53:26.992Z,96377.53
2022-09-22T06:55:55.856Z,96370.22
2022-09-22T06:58:26.332Z,96369.09
2022-09-22T07:00:54.857Z,96345.06
2022-09-22T07:03:24.541Z,96371.31
2022-09-22T07:05:56.780Z,96367.69
2022-09-22T07:08:27.004Z,96366.75
2022-09-22T07:10:57.005Z,96366.66
2022-09-22T07:13:29.869Z,96372.34
2022-09-22T07:16:01.674Z,96366.06
2022-09-22T07:18:30.432Z,96330.75
2022-09-22T07:21:03.870Z,96373.25
2022-09-22T07:23:34.869Z,96365.31
2022-09-22T07:26:04.933Z,96325.94
2022-09-22T07:28:36.575Z,96355.97
2022-09-22T07:31:06.586Z,96358.50
2022-09-22T07:33:35.599Z,96358.94
2022-09-22T07:36:05.888Z,96359.88
2022-09-22T07:38:37.084Z,96361.59
2022-09-22T07:41:07.581Z,96337.84
2022-09-22T07:43:37.711Z,96319.19
2022-09-22T07:46:06.791Z,96364.44
2022-09-22T07:48:37.740Z,96364.53
2022-09-22T07:51:12.974Z,96359.56
2022-09-22T07:53:45.247Z,96357.56
2022-09-22T07:56:15.272Z,96350.34
2022-09-22T07:58:51.008Z,96337.94
2022-09-22T08:01:20.983Z,96366.81
2022-09-22T08:03:49.522Z,96373.16
2022-09-22T08:06:20.227Z,96336.69
2022-09-22T08:08:53.770Z,96362.69
2022-09-22T08:11:24.761Z,96358.75
2022-09-22T08:13:57.304Z,96359.75
2022-09-22T08:16:28.511Z,96353.13
2022-09-22T08:18:58.083Z,96357.84
2022-09-22T08:21:27.307Z,96364.09
2022-09-22T08:23:55.803Z,96349.03
2022-09-22T08:26:24.387Z,96330.63
2022-09-22T08:28:55.147Z,96281.72
2022-09-22T08:31:24.445Z,96361.03
2022-09-22T08:33:53.403Z,96365.31
2022-09-22T08:36:22.879Z,96362.13
2022-09-22T08:38:51.942Z,96361.13
2022-09-22T08:41:28.046Z,96357.16
2022-09-22T08:44:00.715Z,96344.78
2022-09-22T08:46:31.629Z,96365.13
2022-09-22T08:49:23.868Z,96359.56
2022-09-22T08:51:56.412Z,96360.19
2022-09-22T08:54:28.977Z,96344.03
2022-09-22T08:57:19.791Z,96367.91
2022-09-22T08:59:54.244Z,96361.94
2022-09-22T09:02:42.219Z,96354.38
2022-09-22T09:05:49.591Z,96359.81
2022-09-22T09:08:41.700Z,96364.75
2022-09-22T09:14:08.763Z,96363.94
2022-09-22T09:16:47.521Z,96366.69
2022-09-22T09:19:20.636Z,96367.75
2022-09-22T09:21:55.397Z,96188.53
2022-09-22T09:27:24.721Z,96401.44
2022-09-22T09:30:01.667Z,96356.91
2022-09-22T09:32:40.347Z,96331.91
2022-09-22T09:35:14.652Z,96365.28
2022-09-22T09:37:44.729Z,96365.59
2022-09-22T09:40:18.449Z,96368.59
2022-09-22T09:42:49.176Z,96362.09
2022-09-22T09:45:24.170Z,96369.09
2022-09-22T09:48:07.152Z,96365.88
2022-09-22T09:50:38.116Z,96362.06
2022-09-22T09:53:08.689Z,96364.59
2022-09-22T09:55:37.127Z,96358.13
2022-09-22T09:58:35.435Z,96334.59
2022-09-22T10:01:03.487Z,96353.34
2022-09-22T10:03:36.594Z,96337.94
2022-09-22T10:06:07.917Z,96352.06
2022-09-22T10:08:45.024Z,96357.72
2022-09-22T10:11:15.241Z,96356.34
2022-09-22T10:13:45.922Z,96358.00
2022-09-22T10:16:23.189Z,96324.44
2022-09-22T10:19:03.880Z,96328.22
2022-09-22T10:21:32.436Z,96342.66
2022-09-22T10:24:02.079Z,96344.06
2022-09-22T10:26:33.371Z,96345.69
2022-09-22T10:29:18.371Z,96262.09
2022-09-22T10:32:15.082Z,96336.25
2022-09-22T10:34:47.029Z,96338.16
2022-09-22T10:37:17.047Z,96339.56
2022-09-22T10:39:48.396Z,96330.88
2022-09-22T10:42:35.043Z,96312.50
2022-09-22T10:45:07.243Z,96337.13
2022-09-22T10:47:51.524Z,96333.13
2022-09-22T10:50:53.080Z,96327.72
2022-09-22T10:53:37.850Z,96331.50
2022-09-22T10:56:14.975Z,96346.13
2022-09-22T10:59:09.480Z,96326.41
2022-09-22T11:01:54.068Z,96318.81
2022-09-22T11:04:45.301Z,96333.41
2022-09-22T11:07:55.624Z,96297.16
2022-09-22T11:10:53.367Z,96323.13
2022-09-22T11:13:36.607Z,96311.53
2022-09-22T11:16:22.634Z,96323.16
2022-09-22T11:19:19.547Z,96313.09
2022-09-22T11:22:04.328Z,96321.22
2022-09-22T11:24:47.385Z,96321.22
2022-09-22T11:27:23.981Z,96317.16
2022-09-22T11:30:11.304Z,96318.22
2022-09-22T11:33:12.116Z,96314.97
2022-09-22T11:35:57.555Z,96306.84
2022-09-22T11:38:39.572Z,96264.91
2022-09-22T11:41:26.124Z,96296.50
2022-09-22T11:44:11.667Z,96285.09
2022-09-22T11:46:59.641Z,96303.41
2022-09-22T11:49:40.167Z,96294.16
2022-09-22T11:52:22.787Z,96223.38
2022-09-22T11:55:10.163Z,96282.34
2022-09-22T11:57:45.618Z,96242.63
2022-09-22T12:00:17.652Z,96285.22
2022-09-22T12:02:51.041Z,96287.31
2022-09-22T12:05:27.115Z,96284.50
2022-09-22T12:07:59.936Z,96278.50
2022-09-22T12:10:35.950Z,96273.84
2022-09-22T12:13:11.202Z,96263.75
2022-09-22T12:15:49.309Z,96264.44
2022-09-22T12:18:25.492Z,96262.72
2022-09-22T12:21:00.052Z,96255.34
2022-09-22T12:23:40.526Z,96265.28
2022-09-22T12:26:11.296Z,96261.50
2022-09-22T12:28:43.633Z,96257.94
2022-09-22T12:31:15.465Z,96251.34
2022-09-22T12:33:49.094Z,96232.91
2022-09-22T12:36:18.936Z,96251.09
2022-09-22T12:38:47.900Z,96249.44
2022-09-22T12:41:21.515Z,96238.50
2022-09-22T12:43:50.937Z,96244.53
2022-09-22T12:46:28.120Z,96170.53
2022-09-22T12:48:56.640Z,96219.56
2022-09-22T12:51:34.174Z,96240.97
2022-09-22T12:54:48.309Z,96250.06
2022-09-22T12:57:45.060Z,96242.44
2022-09-22T13:00:39.805Z,96240.16
2022-09-22T13:03:42.227Z,96236.78
2022-09-22T13:06:43.644Z,96224.94
2022-09-22T13:09:24.395Z,96218.63
2022-09-22T13:12:28.242Z,96231.22
2022-09-22T13:15:24.928Z,96240.16
2022-09-22T13:17:55.201Z,96228.69
2022-09-22T13:20:32.023Z,96227.47
2022-09-22T13:23:05.966Z,96230.09
2022-09-22T13:25:34.556Z,96207.91
2022-09-22T13:28:12.054Z,96186.91
2022-09-22T13:30:42.497Z,96217.03
2022-09-22T13:33:24.231Z,96206.16
2022-09-22T13:36:03.680Z,96210.09
2022-09-22T13:38:34.918Z,96183.38
2022-09-22T13:41:04.630Z,96173.50
2022-09-22T13:43:37.487Z,96206.03
2022-09-22T13:46:07.732Z,96198.19
2022-09-22T13:48:39.791Z,96198.00
2022-09-22T13:51:10.567Z,96181.72
2022-09-22T13:53:40.051Z,96199.09
2022-09-22T13:56:21.365Z,96176.78
2022-09-22T13:58:52.403Z,96187.94
2022-09-22T14:01:22.818Z,96194.91
2022-09-22T14:03:54.036Z,96191.28
2022-09-22T14:06:25.073Z,96190.81
2022-09-22T14:08:55.224Z,96185.28
2022-09-22T14:11:26.028Z,96122.66
2022-09-22T14:14:02.383Z,96185.44
2022-09-22T14:16:37.301Z,96160.78
2022-09-22T14:19:15.339Z,96182.66
2022-09-22T14:21:50.870Z,96178.31
2022-09-22T14:24:20.019Z,96178.50
2022-09-22T14:26:51.008Z,96173.06
2022-09-22T14:29:24.830Z,96176.84
2022-09-22T14:32:00.485Z,96178.00
2022-09-22T14:34:33.053Z,96152.16
2022-09-22T14:37:11.690Z,96170.75
2022-09-22T14:39:42.411Z,96119.94
2022-09-22T14:42:17.920Z,96144.78
2022-09-22T14:44:48.858Z,96158.22
2022-09-22T14:47:27.103Z,96168.56
2022-09-22T14:50:11.459Z,96170.25
2022-09-22T14:52:44.736Z,96169.44
2022-09-22T14:55:21.886Z,96146.53
2022-09-22T14:57:52.669Z,96171.97
2022-09-22T15:00:38.492Z,96161.16
2022-09-22T15:03:21.624Z,96162.78
2022-09-22T15:05:51.692Z,96155.78
2022-09-22T15:08:25.304Z,96150.34
2022-09-22T15:10:55.384Z,96155.75
2022-09-22T15:13:38.123Z,96153.09
2022-09-22T15:16:07.760Z,96118.63
2022-09-22T15:18:36.271Z,96143.09
2022-09-22T15:21:12.868Z,96136.34
2022-09-22T15:23:45.011Z,96145.63
2022-09-22T15:26:20.672Z,96151.09
2022-09-22T15:28:52.772Z,96145.16
2022-09-22T15:31:26.859Z,96144.88
2022-09-22T15:33:56.372Z,96144.66
2022-09-22T15:36:26.748Z,96147.66
2022-09-22T15:39:00.118Z,96138.78
2022-09-22T15:41:29.258Z,96149.09
2022-09-22T15:43:58.052Z,96136.69
2022-09-22T15:46:34.068Z,96145.88
2022-09-22T15:49:06.445Z,96143.72
2022-09-22T15:51:37.148Z,96130.94
2022-09-22T15:54:14.407Z,96136.50
2022-09-22T15:56:43.283Z,96146.31
2022-09-22T15:59:18.940Z,96141.44
2022-09-22T16:01:47.514Z,96080.19
2022-09-22T16:04:16.440Z,96140.94
2022-09-22T16:06:54.412Z,96132.84
2022-09-22T16:09:23.151Z,96121.78
2022-09-22T16:11:51.975Z,96131.25
2022-09-22T16:14:22.339Z,96134.50
2022-09-22T16:16:52.524Z,96101.34
2022-09-22T16:19:21.219Z,96136.44
2022-09-22T16:21:54.259Z,96135.31
2022-09-22T16:24:23.240Z,96136.44
2022-09-22T16:26:52.720Z,96129.41
2022-09-22T16:29:21.342Z,96110.00
2022-09-22T16:31:50.166Z,96138.63
2022-09-22T16:34:18.781Z,96139.75
2022-09-22T16:36:47.692Z,96132.72
2022-09-22T16:39:18.852Z,96133.25
2022-09-22T16:41:48.267Z,96128.16
2022-09-22T16:44:17.087Z,96137.09
2022-09-22T16:46:45.690Z,96119.84
2022-09-22T16:49:16.464Z,96141.69
2022-09-22T16:51:46.881Z,96099.59
2022-09-22T16:54:17.872Z,96131.72
2022-09-22T16:56:47.436Z,96137.66
2022-09-22T16:59:18.128Z,96133.09
2022-09-22T17:01:47.057Z,96131.19
2022-09-22T17:04:18.691Z,96129.59
2022-09-22T17:06:48.279Z,96131.50
2022-09-22T17:09:19.083Z,96130.44
2022-09-22T17:11:49.322Z,96120.13
2022-09-22T17:14:22.214Z,96124.72
2022-09-22T17:16:52.430Z,96117.16
2022-09-22T17:19:22.361Z,96105.03
2022-09-22T17:21:55.557Z,96016.22
2022-09-22T17:24:26.666Z,96127.47
2022-09-22T17:26:56.949Z,96124.47
2022-09-22T17:29:27.090Z,96125.28
2022-09-22T17:31:58.007Z,96130.13
2022-09-22T17:34:29.021Z,96145.25
2022-09-22T17:36:58.215Z,96127.41
2022-09-22T17:39:29.744Z,96134.72
2022-09-22T17:41:58.625Z,96128.22
2022-09-22T17:44:28.719Z,95904.06
2022-09-22T17:47:14.181Z,96123.63
2022-09-22T17:49:59.678Z,96126.28
2022-09-22T17:52:42.247Z,96132.75
2022-09-22T17:55:16.704Z,96107.88
2022-09-22T17:58:52.742Z,96086.47
2022-09-22T18:01:22.973Z,96128.88
2022-09-22T18:03:53.104Z,96099.94
2022-09-22T18:06:22.677Z,96123.97
2022-09-22T18:08:53.135Z,96129.66
2022-09-22T18:11:28.132Z,96109.63
2022-09-22T18:13:57.991Z,96115.00
2022-09-22T18:16:33.673Z,96137.91
2022-09-22T18:19:05.847Z,96126.53
2022-09-22T18:21:36.273Z,96137.63
2022-09-22T18:24:07.359Z,96129.22
2022-09-22T18:26:43.707Z,96128.16
2022-09-22T18:29:15.138Z,96113.25
2022-09-22T18:31:45.953Z,96125.97
2022-09-22T18:34:16.927Z,96138.31
2022-09-22T18:36:48.536Z,96134.50
2022-09-22T18:39:19.269Z,96132.84
2022-09-22T18:41:50.997Z,96140.63
2022-09-22T18:44:20.637Z,96145.69
2022-09-22T18:46:50.557Z,96142.97
2022-09-22T18:49:19.267Z,96115.03
2022-09-22T18:51:50.540Z,96148.53
2022-09-22T18:54:21.967Z,96114.09
2022-09-22T18:56:52.433Z,96151.41
2022-09-22T18:59:23.601Z,96142.78
2022-09-22T19:01:53.757Z,96147.88
2022-09-22T19:04:25.666Z,96132.91
2022-09-22T19:07:14.413Z,96148.56
2022-09-22T19:09:44.962Z,96159.22
2022-09-22T19:12:17.032Z,96123.47
2022-09-22T19:14:46.864Z,96146.72
2022-09-22T19:17:17.704Z,96154.28
2022-09-22T19:19:48.184Z,96088.66
2022-09-22T19:22:18.288Z,96167.66
2022-09-22T19:24:48.322Z,96159.00
2022-09-22T19:30:11.653Z,96182.88
2022-09-22T19:32:42.679Z,96054.19
2022-09-22T19:35:12.846Z,96146.72
2022-09-22T19:37:42.795Z,96156.38
2022-09-22T19:40:19.120Z,96144.19
2022-09-22T19:42:48.862Z,96147.66
2022-09-22T19:45:20.202Z,96146.19
2022-09-22T19:47:49.975Z,96141.53
2022-09-22T19:50:20.558Z,96154.53
2022-09-22T19:52:51.417Z,96110.34
2022-09-22T19:55:22.676Z,96145.78
2022-09-22T19:57:52.882Z,96147.59
2022-09-22T20:00:26.970Z,96107.50
2022-09-22T20:03:00.354Z,96149.16
2022-09-22T20:05:32.150Z,96148.59
2022-09-22T20:08:01.789Z,96146.91
2022-09-22T20:11:16.332Z,96153.59
2022-09-22T20:14:02.215Z,96139.03
2022-09-22T20:16:32.939Z,96142.78
2022-09-22T20:19:01.384Z,96059.28
2022-09-22T20:21:30.580Z,96141.91
2022-09-22T20:23:58.939Z,96144.28
2022-09-22T20:26:27.451Z,96141.81
2022-09-22T20:28:57.081Z,96137.78
2022-09-22T20:31:25.554Z,96134.28
2022-09-22T20:33:56.084Z,96135.03
2022-09-22T20:36:24.632Z,96131.78
2022-09-22T20:38:53.583Z,96128.50
2022-09-22T20:41:23.742Z,96130.78
2022-09-22T20:43:52.632Z,96128.66
2022-09-22T20:46:21.513Z,96125.91
2022-09-22T20:48:49.926Z,96128.03
2022-09-22T20:51:19.670Z,96125.03
2022-09-22T20:53:48.489Z,96055.41
2022-09-22T20:56:16.995Z,96112.75
2022-09-22T20:58:47.260Z,96123.00
2022-09-22T21:01:18.503Z,96116.53
2022-09-22T21:03:46.839Z,96115.00
2022-09-22T21:06:16.053Z,96116.84
2022-09-22T21:09:18.167Z,96115.75
2022-09-22T21:11:47.155Z,96115.06
2022-09-22T21:14:16.170Z,96117.28
2022-09-22T21:16:45.087Z,96121.59
2022-09-22T21:19:13.524Z,96094.19
2022-09-22T21:21:41.973Z,96119.00
2022-09-22T21:24:11.763Z,96119.22
2022-09-22T21:26:40.164Z,96121.56
2022-09-22T21:29:09.689Z,96111.59
2022-09-22T21:31:38.916Z,96111.03
2022-09-22T21:34:07.306Z,96106.31
2022-09-22T21:36:36.589Z,96108.75
2022-09-22T21:39:05.112Z,96102.75
2022-09-22T21:41:35.560Z,96092.66
2022-09-22T21:44:05.288Z,96068.03
2022-09-22T21:46:36.261Z,96080.97
2022-09-22T21:49:06.968Z,96099.16
2022-09-22T21:51:36.679Z,96105.78
2022-09-22T21:54:07.329Z,96055.19
2022-09-22T21:56:37.344Z,96099.06
2022-09-22T21:59:05.931Z,96096.84
2022-09-22T22:01:36.657Z,96090.13
2022-09-22T22:04:08.597Z,96085.00
2022-09-22T22:06:40.963Z,96090.88
2022-09-22T22:09:14.778Z,96084.00
2022-09-22T22:11:45.531Z,96087.56
2022-09-22T22:14:15.720Z,96083.84
2022-09-22T22:16:45.860Z,96056.31
2022-09-22T22:19:15.593Z,96084.34
2022-09-22T22:21:44.646Z,96090.50
2022-09-22T22:24:29.136Z,96104.13
2022-09-22T22:27:01.628Z,96080.97
2022-09-22T22:29:32.464Z,96078.78
2022-09-22T22:32:01.032Z,95990.97
2022-09-22T22:34:29.468Z,96061.84
2022-09-22T22:36:59.360Z,96071.53
2022-09-22T22:39:28.122Z,96077.53
2022-09-22T22:41:56.484Z,96076.16
2022-09-22T22:44:26.754Z,96068.84
2022-09-22T22:46:55.159Z,96067.66
2022-09-22T22:49:24.160Z,96054.19
2022-09-22T22:51:52.797Z,96063.34
2022-09-22T22:54:21.225Z,96064.91
2022-09-22T22:56:51.523Z,96064.91
2022-09-22T22:59:20.929Z,96061.88
2022-09-22T23:01:50.913Z,96060.50
2022-09-22T23:04:19.591Z,96056.09
2022-09-22T23:06:48.617Z,96061.94
2022-09-22T23:09:19.048Z,96061.94
2022-09-22T23:11:47.963Z,96060.19
2022-09-22T23:14:17.263Z,96055.31
2022-09-22T23:16:47.403Z,96054.75
2022-09-22T23:19:19.652Z,96045.13
2022-09-22T23:21:48.165Z,96018.75
2022-09-22T23:24:19.263Z,96045.00
2022-09-22T23:26:48.645Z,96043.13
2022-09-22T23:29:17.150Z,96016.53
2022-09-22T23:31:46.064Z,96040.59
2022-09-22T23:34:14.545Z,96043.84
2022-09-22T23:36:44.981Z,96048.06
2022-09-22T23:39:13.844Z,96043.75
2022-09-22T23:41:43.206Z,96038.38
2022-09-22T23:44:12.527Z,96034.53
2022-09-22T23:46:41.270Z,96007.38
2022-09-22T23:49:09.594Z,96030.84
2022-09-22T23:51:38.284Z,96028.84
2022-09-22T23:54:08.948Z,96032.94
2022-09-22T23:56:37.997Z,95969.97
2022-09-22T23:59:06.714Z,96022.72
